Time;durP1;ratioP1;P1;durP2;ratioP2;P2;SDS_P1;SDS_P2;PMS_P1;PMS_P2;Temp;Humidity;BMP_temperature;BMP_pressure;BME280_temperature;BME280_humidity;BME280_pressure;Samples;Min_cycle;Max_cycle;Signal;HPM_P1;HPM_P2
2023/06/04 00:01:53;;;;;;;13.30;12.23;;;9.70;97.30;;;;;;5060946;28;20680;-41
2023/06/04 00:04:18;;;;;;;13.07;12.30;;;9.60;97.30;;;;;;5060856;28;20414;-42
2023/06/04 00:06:44;;;;;;;13.53;12.63;;;9.50;97.50;;;;;;5060414;28;20190;-42
2023/06/04 00:09:09;;;;;;;13.63;12.90;;;9.50;97.90;;;;;;5061028;28;20192;-43
2023/06/04 00:11:36;;;;;;;13.23;12.43;;;9.40;98.20;;;;;;5060676;28;20187;-42
2023/06/04 00:14:02;;;;;;;13.50;12.60;;;9.40;98.50;;;;;;5060347;28;20211;-41
2023/06/04 00:16:28;;;;;;;14.20;13.30;;;9.30;99.30;;;;;;5060644;28;20473;-41
2023/06/04 00:18:53;;;;;;;12.53;11.80;;;9.20;99.20;;;;;;5059726;28;20438;-41
2023/06/04 00:21:19;;;;;;;12.73;12.03;;;9.20;99.10;;;;;;5060942;28;20212;-45
2023/06/04 00:23:44;;;;;;;13.23;12.33;;;9.20;99.50;;;;;;5060262;28;20227;-41
2023/06/04 00:26:10;;;;;;;12.30;11.60;;;9.10;99.90;;;;;;5060586;28;20222;-44
2023/06/04 00:28:36;;;;;;;13.60;12.70;;;9.10;99.90;;;;;;5060078;28;20191;-44
2023/06/04 00:31:05;;;;;;;13.20;12.23;;;9.00;99.90;;;;;;5060079;28;20605;-44
2023/06/04 00:33:31;;;;;;;13.13;12.33;;;9.00;99.90;;;;;;5059487;28;20603;-41
2023/06/04 00:35:56;;;;;;;12.67;11.87;;;9.00;99.90;;;;;;5060572;28;20546;-41
2023/06/04 00:38:22;;;;;;;12.90;12.20;;;8.90;99.90;;;;;;5060838;28;20273;-41
2023/06/04 00:40:47;;;;;;;11.53;10.83;;;8.90;99.90;;;;;;5060979;28;20182;-41
2023/06/04 00:43:13;;;;;;;12.40;11.70;;;8.80;99.90;;;;;;5057934;28;20254;-42
2023/06/04 00:45:39;;;;;;;12.50;11.70;;;8.80;99.90;;;;;;5059360;28;20180;-41
2023/06/04 00:48:06;;;;;;;12.70;12.00;;;8.80;99.90;;;;;;5059735;28;20450;-43
2023/06/04 00:50:33;;;;;;;12.43;11.63;;;8.70;99.90;;;;;;5060588;28;20502;-41
2023/06/04 00:52:59;;;;;;;12.43;11.67;;;8.70;99.90;;;;;;5059417;28;20449;-42
2023/06/04 00:55:24;;;;;;;12.43;11.63;;;8.70;99.90;;;;;;5060032;28;20421;-42
2023/06/04 00:57:50;;;;;;;12.90;12.10;;;8.60;99.90;;;;;;5060177;28;20516;-42
2023/06/04 01:00:16;;;;;;;13.10;12.17;;;8.60;99.90;;;;;;5059852;28;20185;-41
2023/06/04 01:02:44;;;;;;;13.00;12.20;;;8.50;99.90;;;;;;5059525;28;20417;-42
2023/06/04 01:05:19;;;;;;;12.50;11.80;;;8.50;99.90;;;;;;5060278;28;20416;-43
2023/06/04 01:07:46;;;;;;;13.00;12.20;;;8.40;99.90;;;;;;5041394;28;20548;-41
2023/06/04 01:10:13;;;;;;;12.40;11.70;;;8.40;99.90;;;;;;5059786;28;20587;-45
2023/06/04 01:12:44;;;;;;;12.53;11.83;;;8.30;99.90;;;;;;5059580;28;20436;-41
2023/06/04 01:15:11;;;;;;;13.67;12.57;;;8.40;99.90;;;;;;5058359;28;20428;-40
2023/06/04 01:17:46;;;;;;;12.57;11.87;;;8.40;99.90;;;;;;5059749;28;20444;-42
2023/06/04 01:20:22;;;;;;;12.40;11.70;;;8.30;99.90;;;;;;5059755;28;20438;-43
2023/06/04 01:23:11;;;;;;;12.57;11.87;;;8.30;99.90;;;;;;5059723;28;20407;-43
2023/06/04 01:25:41;;;;;;;12.90;12.00;;;8.20;99.90;;;;;;5059547;28;20696;-41
2023/06/04 01:28:08;;;;;;;12.23;11.63;;;8.20;99.90;;;;;;5059873;28;20434;-41
2023/06/04 01:30:48;;;;;;;12.10;11.40;;;8.20;99.90;;;;;;5059940;28;20800;-41
2023/06/04 01:33:16;;;;;;;12.43;11.73;;;8.10;99.90;;;;;;5058741;28;20455;-40
2023/06/04 01:35:43;;;;;;;12.87;11.87;;;8.10;99.90;;;;;;5058645;28;20496;-41
2023/06/04 01:38:09;;;;;;;11.67;10.97;;;8.00;99.90;;;;;;5059708;28;20438;-41
2023/06/04 01:40:35;;;;;;;12.23;11.60;;;8.00;99.90;;;;;;5042171;28;20512;-41
2023/06/04 01:43:00;;;;;;;12.37;11.67;;;8.00;99.90;;;;;;5058041;28;20436;-41
2023/06/04 01:45:27;;;;;;;12.20;11.50;;;8.00;99.90;;;;;;5059641;28;20416;-40
2023/06/04 01:47:53;;;;;;;11.60;10.93;;;7.90;99.90;;;;;;5059022;28;20276;-43
2023/06/04 01:50:19;;;;;;;11.50;10.80;;;7.80;99.90;;;;;;5059711;28;20449;-41
2023/06/04 01:52:44;;;;;;;11.83;11.13;;;7.80;99.90;;;;;;5059643;28;20193;-41
2023/06/04 01:55:14;;;;;;;11.60;10.90;;;7.80;99.90;;;;;;5059813;28;20211;-41
2023/06/04 01:57:40;;;;;;;12.27;11.37;;;7.80;99.90;;;;;;5063404;28;20671;-41
2023/06/04 02:00:09;;;;;;;11.63;10.93;;;7.70;99.90;;;;;;5063033;28;21063;-40
2023/06/04 02:09:28;;;;;;;11.60;10.80;;;7.60;99.90;;;;;;5062377;28;20806;-41
2023/06/04 02:11:54;;;;;;;11.73;11.13;;;7.60;99.90;;;;;;5061987;28;20438;-48
2023/06/04 02:14:19;;;;;;;12.00;11.30;;;7.60;99.90;;;;;;5062138;28;20191;-45
2023/06/04 02:16:50;;;;;;;11.33;10.53;;;7.50;99.90;;;;;;5062432;28;20239;-42
2023/06/04 02:19:18;;;;;;;11.63;10.93;;;7.50;99.90;;;;;;5061672;28;20161;-48
2023/06/04 02:21:44;;;;;;;11.87;11.20;;;7.50;99.90;;;;;;5062825;28;20415;-43
2023/06/04 02:24:09;;;;;;;11.13;10.53;;;7.40;99.90;;;;;;5062129;28;20465;-41
2023/06/04 02:26:35;;;;;;;10.97;10.33;;;7.40;99.90;;;;;;5063032;28;20415;-44
2023/06/04 02:29:01;;;;;;;12.17;11.37;;;7.40;99.90;;;;;;5062172;28;20195;-46
2023/06/04 02:31:27;;;;;;;11.43;10.83;;;7.30;99.90;;;;;;5062880;28;20612;-42
2023/06/04 02:33:53;;;;;;;11.27;10.40;;;7.30;99.90;;;;;;5061548;28;20438;-42
2023/06/04 02:36:18;;;;;;;11.80;11.00;;;7.30;99.90;;;;;;5062732;28;20292;-41
2023/06/04 02:38:44;;;;;;;11.27;10.67;;;7.20;99.90;;;;;;5062705;28;20176;-42
2023/06/04 02:41:09;;;;;;;11.80;11.20;;;7.20;99.90;;;;;;5060896;28;20953;-44
2023/06/04 02:43:36;;;;;;;11.30;10.70;;;7.20;99.90;;;;;;5062651;28;20181;-43
2023/06/04 02:46:02;;;;;;;11.80;11.10;;;7.20;99.90;;;;;;5060343;28;20220;-43
2023/06/04 02:48:27;;;;;;;11.63;10.90;;;7.20;99.90;;;;;;5061729;28;20969;-43
2023/06/04 02:50:53;;;;;;;11.90;11.30;;;7.20;99.90;;;;;;5062197;28;20177;-43
2023/06/04 02:53:20;;;;;;;11.17;10.57;;;7.10;99.90;;;;;;5062182;28;20219;-41
2023/06/04 02:55:46;;;;;;;12.20;11.40;;;7.10;99.90;;;;;;5062399;28;20184;-41
2023/06/04 02:58:14;;;;;;;11.93;11.20;;;7.10;99.90;;;;;;5062086;28;20423;-56
2023/06/04 03:00:40;;;;;;;11.50;11.00;;;7.10;99.90;;;;;;5060490;28;20209;-57
2023/06/04 03:03:05;;;;;;;10.30;9.70;;;7.00;99.90;;;;;;5059441;28;20801;-57
2023/06/04 03:05:32;;;;;;;11.87;11.10;;;7.00;99.90;;;;;;5061724;28;20415;-55
2023/06/04 03:07:59;;;;;;;11.88;11.18;;;6.90;99.90;;;;;;5061020;28;21182;-54
2023/06/04 03:10:25;;;;;;;12.27;11.57;;;6.90;99.90;;;;;;5061895;28;20196;-57
2023/06/04 03:12:50;;;;;;;12.45;11.68;;;6.90;99.90;;;;;;5061051;28;20427;-57
2023/06/04 03:15:16;;;;;;;11.83;11.13;;;6.80;99.90;;;;;;5061919;28;20694;-57
2023/06/04 03:17:42;;;;;;;11.70;11.00;;;6.80;99.90;;;;;;5061890;28;20246;-51
2023/06/04 03:20:08;;;;;;;11.77;11.17;;;6.80;99.90;;;;;;5061392;28;20727;-55
2023/06/04 03:22:35;;;;;;;11.20;10.60;;;6.80;99.90;;;;;;5062100;28;20222;-56
2023/06/04 03:25:01;;;;;;;11.30;10.60;;;6.80;99.90;;;;;;5060843;28;20480;-58
2023/06/04 03:27:27;;;;;;;11.63;11.07;;;6.70;99.90;;;;;;5061669;28;20464;-56
2023/06/04 03:29:53;;;;;;;11.97;11.27;;;6.70;99.90;;;;;;5060987;28;20439;-55
2023/06/04 03:32:18;;;;;;;10.60;10.00;;;6.80;99.90;;;;;;5061010;28;20533;-56
2023/06/04 03:34:44;;;;;;;12.00;11.20;;;6.80;99.90;;;;;;5061652;28;20249;-58
2023/06/04 03:37:10;;;;;;;11.37;10.57;;;6.80;99.90;;;;;;5061140;28;20201;-56
2023/06/04 03:39:35;;;;;;;11.70;11.00;;;6.70;99.90;;;;;;5061301;28;20215;-55
2023/06/04 03:42:01;;;;;;;12.10;11.30;;;6.70;99.90;;;;;;5060913;28;20260;-55
2023/06/04 03:44:26;;;;;;;11.73;11.03;;;6.70;99.90;;;;;;5060961;28;20181;-56
2023/06/04 03:46:52;;;;;;;11.40;10.70;;;6.80;99.90;;;;;;5060660;28;20215;-55
2023/06/04 03:49:19;;;;;;;11.53;10.93;;;6.70;99.90;;;;;;5060330;28;20234;-58
2023/06/04 03:51:45;;;;;;;10.83;10.23;;;6.70;99.90;;;;;;5060971;28;20207;-57
2023/06/04 03:54:11;;;;;;;11.27;10.60;;;6.70;99.90;;;;;;5061097;28;20557;-55
2023/06/04 03:56:37;;;;;;;11.90;11.10;;;6.70;99.90;;;;;;5059828;28;20236;-55
2023/06/04 03:59:02;;;;;;;10.23;9.57;;;6.70;99.90;;;;;;5061480;28;20416;-54
2023/06/04 04:01:28;;;;;;;11.10;10.50;;;6.80;99.90;;;;;;5059927;28;20192;-57
2023/06/04 04:03:54;;;;;;;10.63;10.13;;;6.80;99.90;;;;;;5061271;28;20177;-56
2023/06/04 04:06:20;;;;;;;10.77;10.07;;;6.80;99.90;;;;;;5060513;28;20547;-55
2023/06/04 04:08:46;;;;;;;11.10;10.60;;;6.80;99.90;;;;;;5042809;28;20702;-54
2023/06/04 04:11:15;;;;;;;10.50;9.90;;;6.80;99.90;;;;;;5060699;28;20292;-53
2023/06/04 04:13:41;;;;;;;11.32;10.65;;;6.80;99.90;;;;;;5060714;28;20200;-53
2023/06/04 04:16:07;;;;;;;10.50;10.00;;;6.80;99.90;;;;;;5061022;28;20632;-56
2023/06/04 04:18:34;;;;;;;9.80;9.27;;;6.80;99.90;;;;;;5059842;28;20264;-56
2023/06/04 04:21:00;;;;;;;11.00;10.40;;;6.80;99.90;;;;;;5060322;28;20215;-53
2023/06/04 04:23:28;;;;;;;10.67;10.07;;;6.80;99.90;;;;;;5059781;28;20236;-54
2023/06/04 04:25:56;;;;;;;11.03;10.43;;;6.80;99.90;;;;;;5060248;28;20415;-57
2023/06/04 04:28:22;;;;;;;11.30;10.70;;;6.90;99.90;;;;;;5060632;28;20434;-55
2023/06/04 04:30:48;;;;;;;11.40;10.70;;;6.90;99.90;;;;;;5059903;28;20431;-55
2023/06/04 04:33:17;;;;;;;11.35;10.75;;;6.90;99.90;;;;;;5059411;28;21372;-52
2023/06/04 04:35:44;;;;;;;10.60;10.00;;;6.90;99.90;;;;;;5060620;28;20191;-52
2023/06/04 04:38:10;;;;;;;12.10;11.30;;;7.00;99.90;;;;;;5060841;28;20800;-55
2023/06/04 04:40:36;;;;;;;11.30;10.80;;;7.10;99.90;;;;;;5060003;28;20464;-56
2023/06/04 04:43:02;;;;;;;10.70;10.20;;;7.10;99.90;;;;;;5060002;28;20181;-52
2023/06/04 04:45:28;;;;;;;11.10;10.60;;;7.20;99.90;;;;;;5060192;28;20746;-56
2023/06/04 04:47:53;;;;;;;11.50;10.90;;;7.30;99.90;;;;;;5060418;28;20176;-55
2023/06/04 04:50:19;;;;;;;11.03;10.43;;;7.40;99.90;;;;;;5060392;28;20192;-57
2023/06/04 04:52:45;;;;;;;11.07;10.40;;;7.40;99.90;;;;;;5060040;28;20189;-56
2023/06/04 04:55:11;;;;;;;11.33;10.73;;;7.50;99.90;;;;;;5059762;28;20655;-52
2023/06/04 04:57:37;;;;;;;11.53;10.93;;;7.60;99.90;;;;;;5059939;28;20221;-57
2023/06/04 05:00:09;;;;;;;11.03;10.43;;;7.70;99.90;;;;;;5057972;28;20467;-56
2023/06/04 05:02:37;;;;;;;11.23;10.53;;;7.70;99.90;;;;;;5058445;28;20423;-54
2023/06/04 05:05:03;;;;;;;11.57;10.87;;;7.80;99.90;;;;;;5060424;28;21151;-52
2023/06/04 05:07:29;;;;;;;11.00;10.50;;;7.80;99.90;;;;;;5059339;28;20449;-56
2023/06/04 05:09:55;;;;;;;12.00;11.30;;;7.90;99.90;;;;;;5059522;28;20435;-45
2023/06/04 05:12:21;;;;;;;11.90;11.30;;;8.00;99.90;;;;;;5060233;28;20443;-55
2023/06/04 05:14:47;;;;;;;10.97;10.47;;;8.10;99.90;;;;;;5059938;28;20196;-53
2023/06/04 05:17:12;;;;;;;11.50;10.80;;;8.20;99.90;;;;;;5059513;28;20207;-55
2023/06/04 05:19:38;;;;;;;11.70;11.10;;;8.20;99.90;;;;;;5059124;28;20177;-55
2023/06/04 05:22:05;;;;;;;11.40;10.60;;;8.30;99.90;;;;;;5059519;28;20512;-54
2023/06/04 05:24:31;;;;;;;11.60;11.00;;;8.40;99.90;;;;;;5059767;28;20772;-48
2023/06/04 05:26:57;;;;;;;12.00;11.30;;;8.50;99.90;;;;;;5060319;28;20416;-55
2023/06/04 05:29:23;;;;;;;11.40;10.83;;;8.60;99.90;;;;;;5059550;28;20462;-55
2023/06/04 05:31:49;;;;;;;11.73;11.13;;;8.70;99.90;;;;;;5061509;28;20191;-56
2023/06/04 05:34:16;;;;;;;10.80;10.23;;;8.80;99.90;;;;;;5062997;28;20439;-58
2023/06/04 05:36:42;;;;;;;10.53;9.93;;;8.80;99.90;;;;;;5063672;28;20475;-54
2023/06/04 05:39:09;;;;;;;11.50;10.90;;;8.90;99.90;;;;;;5063827;28;21028;-58
2023/06/04 05:41:35;;;;;;;11.13;10.57;;;9.00;99.90;;;;;;5045723;28;20425;-55
2023/06/04 05:44:01;;;;;;;11.67;11.07;;;9.10;99.90;;;;;;5063279;28;20417;-55
2023/06/04 05:46:27;;;;;;;11.83;11.23;;;9.20;99.90;;;;;;5063179;28;20473;-55
2023/06/04 05:48:53;;;;;;;11.67;11.07;;;9.30;99.90;;;;;;5062551;28;20425;-42
2023/06/04 05:51:19;;;;;;;10.90;10.30;;;9.40;99.90;;;;;;5061765;28;20483;-43
2023/06/04 05:53:46;;;;;;;11.20;10.60;;;9.60;99.90;;;;;;5063254;28;20637;-41
2023/06/04 05:56:11;;;;;;;12.00;11.30;;;9.70;99.90;;;;;;5063407;28;21049;-46
2023/06/04 05:58:37;;;;;;;10.97;10.47;;;9.80;99.90;;;;;;5062616;28;20435;-42
2023/06/04 06:01:03;;;;;;;11.63;11.03;;;9.90;99.90;;;;;;5063291;28;20180;-41
2023/06/04 06:03:28;;;;;;;10.70;10.20;;;10.00;99.90;;;;;;5062841;28;20676;-42
2023/06/04 06:05:55;;;;;;;10.40;9.93;;;10.10;99.90;;;;;;5062845;28;20189;-43
2023/06/04 06:08:21;;;;;;;11.63;11.07;;;10.30;99.60;;;;;;5062919;28;20256;-42
2023/06/04 06:10:46;;;;;;;11.77;11.17;;;10.40;99.00;;;;;;5062150;28;20737;-42
2023/06/04 06:13:12;;;;;;;11.33;10.80;;;10.50;98.60;;;;;;5061246;28;20501;-43
2023/06/04 06:15:38;;;;;;;11.23;10.63;;;10.60;98.40;;;;;;5061891;28;20181;-43
2023/06/04 06:18:04;;;;;;;11.80;10.97;;;10.70;98.30;;;;;;5062753;28;20250;-41
2023/06/04 06:20:30;;;;;;;11.00;10.37;;;10.90;98.30;;;;;;5062190;28;20743;-41
2023/06/04 06:22:56;;;;;;;11.67;11.07;;;11.00;98.20;;;;;;5062568;28;20422;-40
2023/06/04 06:25:21;;;;;;;10.67;10.17;;;11.20;98.20;;;;;;5063217;28;20264;-41
2023/06/04 06:27:48;;;;;;;11.60;11.00;;;11.30;98.20;;;;;;5062935;28;20192;-40
2023/06/04 06:30:14;;;;;;;11.47;10.87;;;11.40;97.80;;;;;;5063133;28;20177;-44
2023/06/04 06:32:40;;;;;;;11.57;10.97;;;11.50;97.40;;;;;;5062204;28;20434;-41
2023/06/04 06:35:07;;;;;;;11.13;10.63;;;11.60;97.20;;;;;;5060951;28;20530;-42
2023/06/04 06:37:33;;;;;;;11.53;10.93;;;11.70;96.60;;;;;;5062396;28;20224;-44
2023/06/04 06:39:58;;;;;;;11.50;10.90;;;11.80;95.70;;;;;;5061026;28;20510;-40
2023/06/04 06:42:24;;;;;;;12.10;11.50;;;11.90;95.30;;;;;;5056504;28;20181;-43
2023/06/04 06:44:50;;;;;;;11.90;11.30;;;12.00;94.00;;;;;;5059921;28;20616;-54
2023/06/04 06:47:16;;;;;;;11.20;10.60;;;12.20;93.10;;;;;;5060275;28;20435;-56
2023/06/04 06:49:42;;;;;;;11.47;10.87;;;12.30;92.30;;;;;;5062083;28;20468;-54
2023/06/04 06:52:09;;;;;;;11.40;10.90;;;12.40;92.20;;;;;;5060081;28;20177;-56
2023/06/04 06:54:34;;;;;;;11.53;11.00;;;12.50;91.40;;;;;;5060075;28;20524;-47
2023/06/04 06:57:00;;;;;;;11.57;11.03;;;12.60;91.40;;;;;;5040283;28;20466;-56
2023/06/04 06:59:26;;;;;;;12.03;11.40;;;12.70;90.50;;;;;;5061765;28;20180;-58
2023/06/04 07:01:52;;;;;;;11.63;11.07;;;12.80;90.50;;;;;;5061317;28;20192;-58
2023/06/04 07:04:18;;;;;;;11.10;10.60;;;12.90;90.30;;;;;;5059208;28;20427;-56
2023/06/04 07:06:44;;;;;;;11.10;10.60;;;13.10;88.60;;;;;;5061878;28;20415;-48
2023/06/04 07:09:09;;;;;;;11.40;10.90;;;13.30;87.50;;;;;;5061457;28;20223;-59
2023/06/04 07:11:35;;;;;;;11.77;11.17;;;13.40;86.80;;;;;;5061976;28;20188;-56
2023/06/04 07:14:03;;;;;;;11.93;11.30;;;13.60;82.20;;;;;;5062429;28;21073;-57
2023/06/04 07:16:29;;;;;;;10.97;10.47;;;13.70;80.60;;;;;;5061312;28;20881;-56
2023/06/04 07:18:55;;;;;;;11.97;11.17;;;13.80;80.70;;;;;;5061187;28;20436;-47
2023/06/04 07:21:23;;;;;;;11.70;11.20;;;14.00;81.50;;;;;;5054249;28;20181;-57
2023/06/04 07:23:50;;;;;;;12.23;11.63;;;14.20;81.30;;;;;;5059640;28;20818;-57
2023/06/04 07:26:16;;;;;;;11.77;11.13;;;14.20;79.20;;;;;;5059200;28;20488;-55
2023/06/04 07:28:42;;;;;;;11.27;10.77;;;14.30;78.40;;;;;;5060157;28;20439;-56
2023/06/04 07:31:08;;;;;;;11.47;10.90;;;14.50;78.50;;;;;;5058978;28;20978;-57
2023/06/04 07:33:33;;;;;;;11.00;10.50;;;14.70;76.10;;;;;;5060572;28;20216;-57
2023/06/04 07:35:59;;;;;;;11.00;10.50;;;14.80;75.90;;;;;;5060560;28;20596;-57
2023/06/04 07:38:26;;;;;;;11.40;10.90;;;15.00;76.40;;;;;;5060871;28;20185;-54
2023/06/04 07:40:51;;;;;;;10.53;10.03;;;15.20;76.00;;;;;;5060859;28;20189;-57
2023/06/04 07:43:17;;;;;;;11.33;10.83;;;15.30;75.30;;;;;;5060566;28;20498;-57
2023/06/04 07:45:42;;;;;;;11.50;11.00;;;15.60;74.90;;;;;;5060534;28;20229;-54
2023/06/04 07:48:11;;;;;;;11.80;11.30;;;15.70;72.30;;;;;;5058793;28;20181;-56
2023/06/04 07:50:37;;;;;;;10.80;10.30;;;15.90;71.90;;;;;;5057734;28;20182;-57
2023/06/04 07:53:03;;;;;;;11.40;10.90;;;16.10;71.20;;;;;;5058523;28;20535;-55
2023/06/04 07:55:28;;;;;;;11.37;10.87;;;16.30;70.70;;;;;;5059117;28;20181;-57
2023/06/04 07:57:54;;;;;;;11.07;10.47;;;16.50;68.40;;;;;;5059591;28;20204;-56
2023/06/04 08:00:20;;;;;;;11.50;11.00;;;16.60;65.90;;;;;;5060156;28;20635;-52
2023/06/04 08:02:45;;;;;;;11.20;10.70;;;16.80;66.40;;;;;;5059736;28;20215;-58
2023/06/04 08:05:13;;;;;;;11.00;10.50;;;17.00;64.70;;;;;;5060744;28;20212;-57
2023/06/04 08:07:40;;;;;;;11.53;11.03;;;17.10;63.80;;;;;;5059760;28;20203;-57
2023/06/04 08:10:06;;;;;;;11.20;10.70;;;17.20;61.00;;;;;;5057165;28;20562;-57
2023/06/04 08:12:32;;;;;;;10.50;10.00;;;17.40;61.50;;;;;;5055365;28;20828;-56
2023/06/04 08:14:57;;;;;;;10.33;9.93;;;17.50;58.80;;;;;;5059092;28;20439;-55
2023/06/04 08:17:23;;;;;;;10.60;10.20;;;17.70;58.60;;;;;;5058489;28;20201;-54
2023/06/04 08:19:49;;;;;;;10.80;10.30;;;17.90;56.60;;;;;;5058576;28;20183;-53
2023/06/04 08:22:14;;;;;;;10.53;10.10;;;18.00;55.60;;;;;;5060620;28;20192;-55
2023/06/04 08:24:40;;;;;;;10.63;10.13;;;18.10;54.70;;;;;;5061028;28;20241;-57
2023/06/04 08:27:08;;;;;;;11.00;10.40;;;18.20;53.50;;;;;;5059988;28;20185;-56
2023/06/04 08:29:35;;;;;;;10.50;10.00;;;18.50;52.90;;;;;;5060373;28;20177;-57
2023/06/04 08:32:02;;;;;;;9.50;9.00;;;18.70;52.00;;;;;;5060092;28;20404;-60
2023/06/04 08:34:27;;;;;;;10.80;10.30;;;18.90;51.90;;;;;;5060549;28;20526;-55
2023/06/04 08:36:53;;;;;;;10.70;10.30;;;19.10;49.20;;;;;;5059307;28;20462;-54
2023/06/04 08:39:19;;;;;;;10.23;9.83;;;19.30;48.40;;;;;;5059149;28;20177;-54
2023/06/04 08:41:51;;;;;;;10.80;10.40;;;19.40;47.30;;;;;;5058793;28;20821;-53
2023/06/04 08:44:17;;;;;;;10.20;9.80;;;19.60;45.00;;;;;;5058815;28;20568;-57
2023/06/04 08:46:44;;;;;;;10.83;10.23;;;19.70;44.40;;;;;;5058950;28;20442;-46
2023/06/04 08:49:12;;;;;;;11.10;10.60;;;19.90;42.80;;;;;;5058917;28;20415;-44
2023/06/04 08:51:38;;;;;;;10.30;9.90;;;20.10;43.20;;;;;;5059879;28;20424;-42
2023/06/04 08:54:07;;;;;;;10.27;9.87;;;20.40;39.40;;;;;;5060388;28;20462;-46
2023/06/04 08:56:34;;;;;;;10.20;9.70;;;20.60;37.10;;;;;;5059809;28;20494;-41
2023/06/04 08:59:06;;;;;;;10.90;10.40;;;20.90;35.20;;;;;;5060425;28;20426;-43
2023/06/04 09:01:33;;;;;;;9.93;9.53;;;21.20;34.60;;;;;;5060332;28;20477;-43
2023/06/04 09:04:01;;;;;;;9.93;9.53;;;21.50;35.00;;;;;;5060219;28;20434;-42
2023/06/04 09:06:27;;;;;;;9.27;8.97;;;21.80;33.10;;;;;;5062298;28;20478;-42
2023/06/04 09:08:58;;;;;;;10.37;9.97;;;22.00;32.10;;;;;;5064357;28;20423;-42
2023/06/04 09:11:32;;;;;;;10.10;9.70;;;22.20;31.40;;;;;;5063399;28;20431;-44
2023/06/04 09:14:01;;;;;;;10.03;9.63;;;22.60;30.60;;;;;;5064333;28;20426;-46
2023/06/04 09:16:26;;;;;;;9.90;9.50;;;22.80;29.90;;;;;;5063492;28;20463;-40
2023/06/04 09:18:53;;;;;;;10.43;9.87;;;23.10;28.60;;;;;;5064107;28;20427;-43
2023/06/04 09:21:19;;;;;;;10.33;9.73;;;23.60;28.70;;;;;;5064370;28;20185;-44
2023/06/04 09:23:48;;;;;;;9.87;9.47;;;23.80;28.00;;;;;;5063795;28;20478;-46
2023/06/04 09:26:14;;;;;;;9.97;9.47;;;24.30;26.80;;;;;;5063647;28;20535;-44
2023/06/04 09:28:44;;;;;;;10.10;9.70;;;24.80;26.10;;;;;;5063967;28;20419;-57
2023/06/04 09:31:21;;;;;;;9.40;9.00;;;25.40;26.30;;;;;;5063834;28;20908;-55
2023/06/04 09:33:50;;;;;;;9.70;9.30;;;25.90;25.00;;;;;;5063406;28;20403;-59
2023/06/04 09:36:17;;;;;;;9.90;9.50;;;26.30;25.00;;;;;;5064179;28;20791;-55
2023/06/04 09:38:43;;;;;;;10.07;9.67;;;26.70;23.50;;;;;;5063507;28;20449;-49
2023/06/04 09:41:19;;;;;;;10.50;10.00;;;27.20;23.60;;;;;;5063294;28;20995;-57
2023/06/04 09:43:45;;;;;;;9.53;9.13;;;27.70;22.80;;;;;;5064184;28;20426;-58
2023/06/04 09:46:14;;;;;;;9.93;9.53;;;28.10;20.30;;;;;;5064071;28;20410;-52
2023/06/04 09:48:41;;;;;;;10.17;9.77;;;28.40;19.60;;;;;;5063082;28;20264;-56
2023/06/04 09:51:11;;;;;;;10.63;10.23;;;28.60;18.80;;;;;;5063273;28;20427;-56
2023/06/04 09:53:37;;;;;;;9.77;9.37;;;29.10;18.90;;;;;;5063276;28;20771;-54
2023/06/04 09:56:06;;;;;;;10.60;10.20;;;29.00;17.50;;;;;;5063604;28;20423;-54
2023/06/04 09:58:34;;;;;;;10.00;9.60;;;29.20;17.90;;;;;;5063209;28;20419;-56
2023/06/04 10:01:02;;;;;;;10.40;9.90;;;29.40;17.50;;;;;;5063263;28;20510;-56
2023/06/04 10:03:32;;;;;;;10.00;9.60;;;29.80;17.30;;;;;;5062395;28;20487;-54
2023/06/04 10:06:00;;;;;;;10.87;10.37;;;29.90;15.70;;;;;;5063571;28;20407;-55
2023/06/04 10:08:27;;;;;;;10.33;9.93;;;29.70;15.70;;;;;;5063322;28;20517;-55
2023/06/04 10:11:01;;;;;;;11.10;10.50;;;30.30;16.60;;;;;;5062344;28;20439;-56
2023/06/04 10:13:34;;;;;;;10.60;10.13;;;30.70;17.20;;;;;;5063086;28;20419;-58
2023/06/04 10:16:01;;;;;;;10.60;10.20;;;30.80;16.30;;;;;;5063342;28;20435;-55
2023/06/04 10:18:30;;;;;;;10.00;9.60;;;31.40;16.00;;;;;;5062314;28;20459;-57
2023/06/04 10:20:56;;;;;;;10.20;9.80;;;31.80;15.20;;;;;;5061940;28;20474;-57
2023/06/04 10:23:23;;;;;;;10.40;10.00;;;32.40;15.20;;;;;;5062623;28;20975;-52
2023/06/04 10:25:52;;;;;;;10.20;9.63;;;31.90;13.90;;;;;;5063241;28;20431;-58
2023/06/04 10:28:22;;;;;;;10.00;9.60;;;32.30;14.00;;;;;;5062692;28;20457;-56
2023/06/04 10:30:51;;;;;;;9.00;8.50;;;32.40;13.20;;;;;;5062799;28;20455;-56
2023/06/04 10:33:23;;;;;;;10.00;9.60;;;32.20;12.10;;;;;;5062512;28;20485;-57
2023/06/04 10:35:50;;;;;;;10.00;9.50;;;32.40;11.80;;;;;;5062887;28;20419;-55
2023/06/04 10:38:18;;;;;;;10.37;9.97;;;31.40;11.80;;;;;;5062912;28;20471;-56
2023/06/04 10:40:44;;;;;;;9.97;9.53;;;30.80;12.80;;;;;;5062084;28;20419;-56
2023/06/04 10:43:12;;;;;;;9.93;9.23;;;31.00;13.90;;;;;;5062399;28;20475;-56
2023/06/04 10:45:38;;;;;;;9.00;8.60;;;31.50;14.50;;;;;;5063065;28;20426;-57
2023/06/04 10:48:09;;;;;;;9.47;9.10;;;31.90;13.60;;;;;;5061880;28;20424;-56
2023/06/04 10:50:46;;;;;;;10.00;9.60;;;32.30;13.40;;;;;;5059606;28;20200;-57
2023/06/04 10:53:12;;;;;;;10.07;9.67;;;32.90;13.80;;;;;;5061591;28;20427;-57
2023/06/04 10:55:44;;;;;;;9.50;9.13;;;33.20;12.70;;;;;;5062034;28;20434;-56
2023/06/04 10:58:10;;;;;;;10.23;9.83;;;33.50;13.00;;;;;;5061369;28;20296;-57
2023/06/04 11:00:36;;;;;;;9.73;9.33;;;34.10;12.40;;;;;;5062615;28;20427;-58
2023/06/04 11:03:03;;;;;;;9.73;9.23;;;34.40;11.70;;;;;;5062439;28;20192;-57
2023/06/04 11:05:43;;;;;;;10.23;9.73;;;34.60;11.80;;;;;;5062139;28;20477;-58
2023/06/04 11:08:11;;;;;;;10.10;9.70;;;34.60;11.20;;;;;;5061899;28;20434;-57
2023/06/04 11:10:40;;;;;;;10.00;9.60;;;34.80;11.60;;;;;;5061509;28;20424;-57
2023/06/04 11:13:06;;;;;;;9.40;9.00;;;34.80;9.60;;;;;;5061072;28;20481;-55
2023/06/04 11:15:46;;;;;;;9.80;9.40;;;34.30;9.20;;;;;;5062193;28;20423;-57
2023/06/04 11:18:16;;;;;;;10.37;9.97;;;34.30;10.30;;;;;;5061470;28;20262;-56
2023/06/04 11:20:44;;;;;;;10.37;9.90;;;34.70;10.60;;;;;;5061557;28;20446;-58
2023/06/04 11:23:12;;;;;;;9.13;8.83;;;34.60;9.80;;;;;;5061752;28;20457;-56
2023/06/04 11:25:38;;;;;;;10.70;10.30;;;34.80;11.10;;;;;;5043524;28;20444;-57
2023/06/04 11:28:04;;;;;;;9.97;9.57;;;35.10;10.60;;;;;;5043210;28;20433;-57
2023/06/04 11:30:30;;;;;;;10.30;9.90;;;35.40;10.10;;;;;;5061472;28;20271;-57
2023/06/04 11:33:03;;;;;;;9.97;9.57;;;35.30;10.10;;;;;;5061492;28;20772;-57
2023/06/04 11:35:28;;;;;;;9.50;9.10;;;35.50;10.10;;;;;;5061833;28;20192;-57
2023/06/04 11:37:55;;;;;;;9.70;9.30;;;35.30;9.20;;;;;;5061452;28;20455;-57
2023/06/04 11:40:21;;;;;;;10.93;10.43;;;35.30;8.80;;;;;;5061071;28;20177;-52
2023/06/04 11:42:48;;;;;;;10.53;10.13;;;35.00;7.90;;;;;;5061621;28;20410;-56
2023/06/04 11:45:15;;;;;;;10.37;9.97;;;34.30;8.40;;;;;;5061141;28;20224;-57
2023/06/04 11:47:48;;;;;;;10.40;10.00;;;33.90;8.80;;;;;;5061058;28;20522;-57
2023/06/04 11:50:14;;;;;;;10.27;9.87;;;34.00;9.40;;;;;;5061083;28;20419;-57
2023/06/04 11:52:41;;;;;;;10.37;9.97;;;34.30;10.50;;;;;;5060133;28;20968;-57
2023/06/04 11:55:11;;;;;;;9.10;8.80;;;34.60;10.00;;;;;;5061209;28;20500;-57
2023/06/04 11:57:38;;;;;;;10.60;10.20;;;34.80;10.20;;;;;;5060525;28;20508;-52
2023/06/04 12:00:09;;;;;;;9.80;9.40;;;35.00;9.80;;;;;;5061076;28;20461;-58
2023/06/04 12:02:38;;;;;;;10.47;10.07;;;35.00;9.70;;;;;;5061171;28;20840;-53
2023/06/04 12:05:19;;;;;;;9.80;9.40;;;35.20;10.30;;;;;;5061485;28;20981;-56
2023/06/04 12:07:47;;;;;;;10.33;9.83;;;35.20;9.20;;;;;;5061181;28;20434;-56
2023/06/04 12:10:13;;;;;;;9.80;9.40;;;35.00;8.80;;;;;;5060541;28;20543;-58
2023/06/04 12:12:40;;;;;;;10.57;10.07;;;34.80;9.30;;;;;;5060297;28;20828;-58
2023/06/04 12:15:07;;;;;;;10.23;9.73;;;35.10;9.90;;;;;;5060039;28;20411;-57
2023/06/04 12:17:33;;;;;;;9.90;9.50;;;35.50;9.70;;;;;;5059297;28;20458;-57
2023/06/04 12:19:58;;;;;;;10.47;10.07;;;35.60;9.60;;;;;;5060672;28;20419;-48
2023/06/04 12:22:26;;;;;;;10.00;9.40;;;35.40;9.10;;;;;;5060911;28;20179;-56
2023/06/04 12:24:57;;;;;;;10.97;10.50;;;35.70;9.60;;;;;;5060220;28;20840;-49
2023/06/04 12:27:25;;;;;;;10.17;9.70;;;36.00;9.50;;;;;;5060647;28;20929;-57
2023/06/04 12:29:58;;;;;;;10.43;9.93;;;35.70;8.90;;;;;;5060647;28;20502;-57
2023/06/04 12:32:24;;;;;;;9.90;9.50;;;35.70;9.40;;;;;;5058922;28;20458;-55
2023/06/04 12:34:49;;;;;;;10.20;9.80;;;35.80;9.30;;;;;;5060445;28;20438;-57
2023/06/04 12:37:15;;;;;;;10.60;10.20;;;35.80;8.50;;;;;;5060856;28;20208;-58
2023/06/04 12:39:40;;;;;;;9.67;9.27;;;35.60;8.90;;;;;;5060489;28;20843;-53
2023/06/04 12:42:08;;;;;;;10.37;9.97;;;36.00;8.60;;;;;;5058718;28;20177;-57